Terminal Aerodrome Forecast
Issued by NWS Boston, MA

Home | Current Version | Previous Version | Text Only | Print | Product List | Glossary On
Versions: 1 2 3 4 5 6 7 8 9 10 11 12 13 14 15 16 17 18 19 20 21 22 23 24 25 26
000
FTUS41 KBOX 201729
TAFORH
TAF
KORH 201729Z 2018/2118 21012G18KT P6SM BKN030
     FM202100 20011KT P6SM SCT040
     FM210300 21008KT P6SM SCT040
     FM210400 21008KT P6SM BKN040
     FM210900 19006KT 3SM BR BKN003
     FM211500 17007KT 3SM BR BKN008=

USA.gov is the U.S. government's official web portal to all federal, state and local government web resources and services.